Heydar Aliyev — 9HFS7 — position and weather

sailwx.info

Track history (hours):
 
Tides and Currents Weather Stations Pressure Air Temp Water Temp Dewpoint Dewpoint Depression Visibility Wind Speed Wind Dir Waves Ship Positions

Heydar Aliyev

Last reported at 2015-Apr-28 19:27 UTC. Time now 2015-May-04 15:03 UTC.
Position N 45°07' E 036°33'.

Length 274 m; draft 9.3 m.

Type: Tanker. MMSI: 215213000.

Date/timePositionNaut miles runAvg speedWind from/ knotsBaromVisibWave heightAir tempDewpointWater temp
2015-Apr-28 19:27N 45°07' E 036°33'0 0.0
2015-Apr-28 18:06N 45°07' E 036°33'0 0.0
2015-Apr-28 17:33N 45°07' E 036°33'0 0.1
2015-Apr-28 14:18N 45°07' E 036°33'0 0.0
2015-Apr-28 11:18N 45°07' E 036°33'0 0.0
2015-Apr-28 10:27N 45°07' E 036°33'0 0.0
2015-Apr-28 09:33N 45°07' E 036°33'0 0.0
2015-Apr-28 08:33N 45°07' E 036°33'0 0.1
2015-Apr-28 07:30N 45°07' E 036°33'0 0.0
2015-Apr-28 06:30N 45°07' E 036°33'0 0.0
2015-Apr-28 03:21N 45°07' E 036°33'0 0.0
2015-Apr-28 02:33N 45°07' E 036°33'0 0.1
2015-Apr-28 01:33N 45°07' E 036°33'0 0.1
2015-Apr-28 00:33N 45°07' E 036°33'0 0.0
2015-Apr-27 23:33N 45°07' E 036°33'0 0.0
2015-Apr-27 22:33N 45°07' E 036°33'0 0.1
2015-Apr-27 21:33N 45°07' E 036°33'0 0.0
2015-Apr-27 20:33N 45°07' E 036°33'0 0.0
2015-Apr-27 19:33N 45°07' E 036°33'0 0.0
2015-Apr-27 18:33N 45°07' E 036°33'0 0.0
2015-Apr-27 00:24N 45°07' E 036°33'0 0.0
2015-Apr-26 15:18N 45°07' E 036°33'0 0.1
2015-Apr-26 14:30N 45°07' E 036°33'0 0.1
2015-Apr-26 13:30N 45°07' E 036°33'0 0.1
2015-Apr-26 12:18N 45°07' E 036°33'0 0.0
2015-Apr-26 11:33N 45°07' E 036°33'0 0.0
2015-Apr-26 10:33N 45°07' E 036°33'0 0.0
2015-Apr-26 09:33N 45°07' E 036°33'0 0.1
2015-Apr-26 08:33N 45°07' E 036°33'0 0.0
2015-Apr-26 07:33N 45°07' E 036°33'0 0.0
2015-Apr-26 06:33N 45°07' E 036°33'0 0.0
2015-Apr-26 05:18N 45°07' E 036°33'0 0.0
2015-Apr-26 03:18N 45°07' E 036°33'0 0.0
2015-Apr-26 02:30N 45°07' E 036°33'0 0.0
2015-Apr-25 23:12N 45°07' E 036°33'0 0.0
2015-Apr-25 22:33N 45°07' E 036°33'0 0.0
2015-Apr-25 20:33N 45°07' E 036°33'0 0.0
2015-Apr-25 19:33N 45°07' E 036°33'0 0.0
2015-Apr-25 18:27N 45°07' E 036°33'0 0.0
2015-Apr-25 17:27N 45°07' E 036°33'0 0.0
2015-Apr-25 16:33N 45°07' E 036°33'0 0.0
2015-Apr-25 15:30N 45°07' E 036°33'0 0.0
2015-Apr-25 14:33N 45°07' E 036°33'0 0.0
2015-Apr-25 13:30N 45°07' E 036°33'0 0.0
2015-Apr-25 12:33N 45°07' E 036°33'0 0.0
2015-Apr-25 11:33N 45°07' E 036°33'0 0.0
2015-Apr-25 09:33N 45°07' E 036°33'0 0.0
2015-Apr-25 08:30N 45°07' E 036°33'0 0.0
2015-Apr-25 07:33N 45°07' E 036°33'0 0.0
2015-Apr-25 06:06N 45°07' E 036°33'0 0.0
2015-Apr-25 05:30N 45°07' E 036°33'0 0.0
2015-Apr-24 11:24N 45°07' E 036°33'0 0.0
2015-Apr-24 10:27N 45°07' E 036°33'0 0.0
2015-Apr-24 09:30N 45°07' E 036°33'0 0.0
2015-Apr-24 08:30N 45°07' E 036°33'0 0.0
2015-Apr-24 06:12N 45°07' E 036°33'  
2015-Apr-20 16:31N 41°56' E 029°40'1313.8
2015-Apr-20 15:33N 41°45' E 029°31'1414.2
2015-Apr-20 14:33N 41°32' E 029°22'1413.8
2015-Apr-20 13:34N 41°20' E 029°14'1311.8
2015-Apr-20 12:26N 41°09' E 029°03'8 9.2
2015-Apr-20 11:32N 41°01' E 028°60'9 8.8
2015-Apr-20 10:32N 40°53' E 028°56'4 3.9
2015-Apr-20 09:33N 40°50' E 028°54'0 0.3
2015-Apr-20 08:32N 40°50' E 028°54'1 1.4
2015-Apr-20 07:28N 40°50' E 028°56'2 2.0
2015-Apr-20 06:33N 40°48' E 028°56'1 0.7
2015-Apr-20 05:33N 40°49' E 028°56'1 0.7
2015-Apr-20 04:32N 40°49' E 028°57'1 0.7
2015-Apr-20 03:31N 40°50' E 028°57'1 0.9
2015-Apr-20 02:33N 40°50' E 028°56'0 0.4
2015-Apr-20 01:33N 40°50' E 028°56'1 0.5
2015-Apr-20 00:32N 40°50' E 028°56'1 0.7
2015-Apr-19 23:32N 40°51' E 028°55'8 7.6
2015-Apr-19 22:33N 40°50' E 028°45'  
Track history (hours):
 
Tides and Currents Weather Stations Pressure Air Temp Water Temp Dewpoint Dewpoint Depression Visibility Wind Speed Wind Dir Waves Ship Positions

Heydar Aliyev

Last reported at 2015-Apr-28 19:27 UTC. Time now 2015-May-04 15:03 UTC.
Position N 45°07' E 036°33'.

Length 274 m; draft 9.3 m.

Type: Tanker. MMSI: 215213000.

Date/timePositionNaut miles runAvg speedWind from/ knotsBaromVisibWave heightAir tempDewpointWater temp
2015-Apr-28 19:27N 45°07' E 036°33'0 0.0
2015-Apr-28 18:06N 45°07' E 036°33'0 0.0
2015-Apr-28 17:33N 45°07' E 036°33'0 0.1
2015-Apr-28 14:18N 45°07' E 036°33'0 0.0
2015-Apr-28 11:18N 45°07' E 036°33'0 0.0
2015-Apr-28 10:27N 45°07' E 036°33'0 0.0
2015-Apr-28 09:33N 45°07' E 036°33'0 0.0
2015-Apr-28 08:33N 45°07' E 036°33'0 0.1
2015-Apr-28 07:30N 45°07' E 036°33'0 0.0
2015-Apr-28 06:30N 45°07' E 036°33'0 0.0
2015-Apr-28 03:21N 45°07' E 036°33'0 0.0
2015-Apr-28 02:33N 45°07' E 036°33'0 0.1
2015-Apr-28 01:33N 45°07' E 036°33'0 0.1
2015-Apr-28 00:33N 45°07' E 036°33'0 0.0
2015-Apr-27 23:33N 45°07' E 036°33'0 0.0
2015-Apr-27 22:33N 45°07' E 036°33'0 0.1
2015-Apr-27 21:33N 45°07' E 036°33'0 0.0
2015-Apr-27 20:33N 45°07' E 036°33'0 0.0
2015-Apr-27 19:33N 45°07' E 036°33'0 0.0
2015-Apr-27 18:33N 45°07' E 036°33'0 0.0
2015-Apr-27 00:24N 45°07' E 036°33'0 0.0
2015-Apr-26 15:18N 45°07' E 036°33'0 0.1
2015-Apr-26 14:30N 45°07' E 036°33'0 0.1
2015-Apr-26 13:30N 45°07' E 036°33'0 0.1
2015-Apr-26 12:18N 45°07' E 036°33'0 0.0
2015-Apr-26 11:33N 45°07' E 036°33'0 0.0
2015-Apr-26 10:33N 45°07' E 036°33'0 0.0
2015-Apr-26 09:33N 45°07' E 036°33'0 0.1
2015-Apr-26 08:33N 45°07' E 036°33'0 0.0
2015-Apr-26 07:33N 45°07' E 036°33'0 0.0
2015-Apr-26 06:33N 45°07' E 036°33'0 0.0
2015-Apr-26 05:18N 45°07' E 036°33'0 0.0
2015-Apr-26 03:18N 45°07' E 036°33'0 0.0
2015-Apr-26 02:30N 45°07' E 036°33'0 0.0
2015-Apr-25 23:12N 45°07' E 036°33'0 0.0
2015-Apr-25 22:33N 45°07' E 036°33'0 0.0
2015-Apr-25 20:33N 45°07' E 036°33'0 0.0
2015-Apr-25 19:33N 45°07' E 036°33'0 0.0
2015-Apr-25 18:27N 45°07' E 036°33'0 0.0
2015-Apr-25 17:27N 45°07' E 036°33'0 0.0
2015-Apr-25 16:33N 45°07' E 036°33'0 0.0
2015-Apr-25 15:30N 45°07' E 036°33'0 0.0
2015-Apr-25 14:33N 45°07' E 036°33'0 0.0
2015-Apr-25 13:30N 45°07' E 036°33'0 0.0
2015-Apr-25 12:33N 45°07' E 036°33'0 0.0
2015-Apr-25 11:33N 45°07' E 036°33'0 0.0
2015-Apr-25 09:33N 45°07' E 036°33'0 0.0
2015-Apr-25 08:30N 45°07' E 036°33'0 0.0
2015-Apr-25 07:33N 45°07' E 036°33'0 0.0
2015-Apr-25 06:06N 45°07' E 036°33'0 0.0
2015-Apr-25 05:30N 45°07' E 036°33'0 0.0
2015-Apr-24 11:24N 45°07' E 036°33'0 0.0
2015-Apr-24 10:27N 45°07' E 036°33'0 0.0
2015-Apr-24 09:30N 45°07' E 036°33'0 0.0
2015-Apr-24 08:30N 45°07' E 036°33'0 0.0
2015-Apr-24 06:12N 45°07' E 036°33'  
2015-Apr-20 16:31N 41°56' E 029°40'1313.8
2015-Apr-20 15:33N 41°45' E 029°31'1414.2
2015-Apr-20 14:33N 41°32' E 029°22'1413.8
2015-Apr-20 13:34N 41°20' E 029°14'1311.8
2015-Apr-20 12:26N 41°09' E 029°03'8 9.2
2015-Apr-20 11:32N 41°01' E 028°60'9 8.8
2015-Apr-20 10:32N 40°53' E 028°56'4 3.9
2015-Apr-20 09:33N 40°50' E 028°54'0 0.3
2015-Apr-20 08:32N 40°50' E 028°54'1 1.4
2015-Apr-20 07:28N 40°50' E 028°56'2 2.0
2015-Apr-20 06:33N 40°48' E 028°56'1 0.7
2015-Apr-20 05:33N 40°49' E 028°56'1 0.7
2015-Apr-20 04:32N 40°49' E 028°57'1 0.7
2015-Apr-20 03:31N 40°50' E 028°57'1 0.9
2015-Apr-20 02:33N 40°50' E 028°56'0 0.4
2015-Apr-20 01:33N 40°50' E 028°56'1 0.5
2015-Apr-20 00:32N 40°50' E 028°56'1 0.7
2015-Apr-19 23:32N 40°51' E 028°55'8 7.6
2015-Apr-19 22:33N 40°50' E 028°45'  

Dump ship's entire track history